Akune, Japan

8:48 PM JST on January 29, 2015 (GMT +0900)
Kanoya | Change Station
CLOSE
Current Station
Airport
Location: Kanoya AB,
Elevation: 223 ft
Nearby Weather Stations

Elev 223 ft 31.37 °N, 130.84 °E | Updated 24 minutes ago

Light Rain
Light Rain Mist
45 °F
Feels Like 40 °F
N
8
Wind Variable Wind from ENE

Today
High -- | Low -- °F
--% Chance of Precip.
Yesterday
High -- | Low -- °F
Precip. -- in
7:15 AM 5:49 PM
Waxing Gibbous, 73% visible
Pressure 30.15 in
Visibility -9999.0 miles
Clouds Few 500 ft
Mostly Cloudy 2000 ft
Overcast 4500 ft
Windchill 40 °F
Dew Point 43 °F
Humidity 93%
Rainfall 0.00 in
Snow Depth Not available.
UV 0 out of 12
Pollen Not available.
Air Quality Not available.
Flu Activity Not available.
SPECI RJFY 291124Z 06007KT 4900 -RA BR FEW005 BKN020 OVC045 07/06 Q1021 RMK 2ST005 5CU020 8SC045 A3016

More Conditions Fewer Conditions

Pressure 30.15 in
Visibility -9999.0 miles
Clouds Few 500 ft
Mostly Cloudy 2000 ft
Overcast 4500 ft
Windchill 40 °F
Dew Point 43 °F
Humidity 93%
Rainfall 0.00 in
Snow Depth Not available.
UV 0 out of 12
Pollen Not available.
Air Quality Not available.
Flu Activity Not available.
SPECI RJFY 291124Z 06007KT 4900 -RA BR FEW005 BKN020 OVC045 07/06 Q1021 RMK 2ST005 5CU020 8SC045 A3016

More Conditions Fewer Conditions

10-Day Weather Forecast

Almanac

Astronomy

Jan. 29, 2015 Rise Set
Actual Time
Civil Twilight
Nautical Twilight
Astronomical Twilight
Moon
Length of Visible Light
Length of Day
Tomorrow will be .
, % of the Moon is Illuminated

Today's Extremes

Country Highs Country Lows

Community

WunderPhotos

Upload Photos

1,791,408 photos uploaded!

WunderBlogs® & News

Nearby

Air Quality

  Air Quality AQ Index Pollutant
Not available.

Snow Depth

Station Depth Elevation

Earthquake Activity

City Distance Mag. Time & Date
Minimum magnitude displayed is 2.5.

Coastal Water Temperatures

Place Temperature

Nearby Weather Stations